sensor_id;sensor_type;location;lat;lon;timestamp;P1;durP1;ratioP1;P2;durP2;ratioP2
50569;SDS011;36525;49.398;7.614;2022-10-26T00:03:37;13.57;;;4.43;;
50569;SDS011;36525;49.398;7.614;2022-10-26T00:06:06;10.15;;;3.65;;
50569;SDS011;36525;49.398;7.614;2022-10-26T00:08:33;9.18;;;3.40;;
50569;SDS011;36525;49.398;7.614;2022-10-26T00:11:01;9.27;;;3.40;;
50569;SDS011;36525;49.398;7.614;2022-10-26T00:13:28;7.63;;;3.20;;
50569;SDS011;36525;49.398;7.614;2022-10-26T00:15:55;7.60;;;3.08;;
50569;SDS011;36525;49.398;7.614;2022-10-26T00:18:22;6.38;;;2.65;;
50569;SDS011;36525;49.398;7.614;2022-10-26T00:20:50;12.75;;;3.28;;
50569;SDS011;36525;49.398;7.614;2022-10-26T00:23:17;8.65;;;3.50;;
50569;SDS011;36525;49.398;7.614;2022-10-26T00:25:44;9.00;;;3.58;;
50569;SDS011;36525;49.398;7.614;2022-10-26T00:28:19;9.27;;;3.28;;
50569;SDS011;36525;49.398;7.614;2022-10-26T00:30:46;9.07;;;3.28;;
50569;SDS011;36525;49.398;7.614;2022-10-26T00:33:13;5.78;;;2.50;;
50569;SDS011;36525;49.398;7.614;2022-10-26T00:35:40;9.23;;;2.50;;
50569;SDS011;36525;49.398;7.614;2022-10-26T00:38:11;8.77;;;2.50;;
50569;SDS011;36525;49.398;7.614;2022-10-26T00:40:38;7.35;;;2.80;;
50569;SDS011;36525;49.398;7.614;2022-10-26T00:43:13;15.13;;;3.50;;
50569;SDS011;36525;49.398;7.614;2022-10-26T00:45:46;10.40;;;3.03;;
50569;SDS011;36525;49.398;7.614;2022-10-26T00:48:19;7.75;;;2.38;;
50569;SDS011;36525;49.398;7.614;2022-10-26T00:50:51;11.95;;;3.30;;
50569;SDS011;36525;49.398;7.614;2022-10-26T00:53:20;7.00;;;2.83;;
50569;SDS011;36525;49.398;7.614;2022-10-26T00:55:47;5.20;;;2.35;;
50569;SDS011;36525;49.398;7.614;2022-10-26T00:58:16;10.98;;;3.17;;
50569;SDS011;36525;49.398;7.614;2022-10-26T01:00:45;9.00;;;3.20;;
50569;SDS011;36525;49.398;7.614;2022-10-26T01:03:13;6.43;;;2.45;;
50569;SDS011;36525;49.398;7.614;2022-10-26T01:05:43;9.45;;;2.65;;
50569;SDS011;36525;49.398;7.614;2022-10-26T01:08:12;8.50;;;2.58;;
50569;SDS011;36525;49.398;7.614;2022-10-26T01:10:41;8.35;;;3.03;;
50569;SDS011;36525;49.398;7.614;2022-10-26T01:13:09;6.10;;;2.80;;
50569;SDS011;36525;49.398;7.614;2022-10-26T01:18:57;6.88;;;2.42;;
50569;SDS011;36525;49.398;7.614;2022-10-26T01:30:14;9.90;;;3.05;;
50569;SDS011;36525;49.398;7.614;2022-10-26T01:36:05;6.43;;;2.50;;
50569;SDS011;36525;49.398;7.614;2022-10-26T01:38:57;10.02;;;2.58;;
50569;SDS011;36525;49.398;7.614;2022-10-26T01:41:41;9.90;;;2.72;;
50569;SDS011;36525;49.398;7.614;2022-10-26T01:46:48;13.82;;;3.50;;
50569;SDS011;36525;49.398;7.614;2022-10-26T01:49:22;7.47;;;3.03;;
50569;SDS011;36525;49.398;7.614;2022-10-26T01:51:57;7.53;;;2.80;;
50569;SDS011;36525;49.398;7.614;2022-10-26T01:54:24;8.98;;;3.00;;
50569;SDS011;36525;49.398;7.614;2022-10-26T01:56:54;13.40;;;3.13;;
50569;SDS011;36525;49.398;7.614;2022-10-26T02:10:50;9.15;;;3.10;;
50569;SDS011;36525;49.398;7.614;2022-10-26T02:13:54;11.80;;;3.70;;
50569;SDS011;36525;49.398;7.614;2022-10-26T02:19:25;11.00;;;3.20;;
50569;SDS011;36525;49.398;7.614;2022-10-26T02:22:15;16.55;;;4.25;;
50569;SDS011;36525;49.398;7.614;2022-10-26T02:24:51;12.27;;;4.18;;
50569;SDS011;36525;49.398;7.614;2022-10-26T02:27:19;10.50;;;3.70;;
50569;SDS011;36525;49.398;7.614;2022-10-26T02:29:51;8.73;;;2.63;;
50569;SDS011;36525;49.398;7.614;2022-10-26T02:32:22;10.48;;;3.97;;
50569;SDS011;36525;49.398;7.614;2022-10-26T02:34:54;14.98;;;4.38;;
50569;SDS011;36525;49.398;7.614;2022-10-26T02:37:23;8.60;;;3.92;;
50569;SDS011;36525;49.398;7.614;2022-10-26T02:39:51;11.15;;;3.88;;
50569;SDS011;36525;49.398;7.614;2022-10-26T02:42:20;11.05;;;3.70;;
50569;SDS011;36525;49.398;7.614;2022-10-26T02:44:53;11.80;;;3.90;;
50569;SDS011;36525;49.398;7.614;2022-10-26T02:47:23;8.65;;;2.97;;
50569;SDS011;36525;49.398;7.614;2022-10-26T02:49:52;9.73;;;3.00;;
50569;SDS011;36525;49.398;7.614;2022-10-26T02:52:22;9.18;;;2.58;;
50569;SDS011;36525;49.398;7.614;2022-10-26T02:55:03;10.48;;;4.50;;
50569;SDS011;36525;49.398;7.614;2022-10-26T02:57:39;13.40;;;4.53;;
50569;SDS011;36525;49.398;7.614;2022-10-26T03:00:11;12.02;;;4.60;;
50569;SDS011;36525;49.398;7.614;2022-10-26T03:02:50;13.20;;;4.50;;
50569;SDS011;36525;49.398;7.614;2022-10-26T03:05:22;8.75;;;2.80;;
50569;SDS011;36525;49.398;7.614;2022-10-26T03:07:52;9.70;;;2.70;;
50569;SDS011;36525;49.398;7.614;2022-10-26T03:10:20;11.98;;;4.70;;
50569;SDS011;36525;49.398;7.614;2022-10-26T03:12:47;8.05;;;1.85;;
50569;SDS011;36525;49.398;7.614;2022-10-26T03:15:15;8.05;;;2.33;;
50569;SDS011;36525;49.398;7.614;2022-10-26T03:17:42;8.55;;;1.80;;
50569;SDS011;36525;49.398;7.614;2022-10-26T03:20:09;8.13;;;3.25;;
50569;SDS011;36525;49.398;7.614;2022-10-26T03:22:36;10.02;;;3.90;;
50569;SDS011;36525;49.398;7.614;2022-10-26T03:25:03;6.53;;;3.25;;
50569;SDS011;36525;49.398;7.614;2022-10-26T03:27:31;6.93;;;1.27;;
50569;SDS011;36525;49.398;7.614;2022-10-26T03:29:58;6.03;;;2.28;;
50569;SDS011;36525;49.398;7.614;2022-10-26T03:32:24;6.15;;;1.55;;
50569;SDS011;36525;49.398;7.614;2022-10-26T03:34:51;6.63;;;1.88;;
50569;SDS011;36525;49.398;7.614;2022-10-26T03:37:18;6.97;;;2.03;;
50569;SDS011;36525;49.398;7.614;2022-10-26T03:39:45;3.42;;;1.42;;
50569;SDS011;36525;49.398;7.614;2022-10-26T03:42:12;4.68;;;0.90;;
50569;SDS011;36525;49.398;7.614;2022-10-26T03:44:39;5.25;;;1.00;;
50569;SDS011;36525;49.398;7.614;2022-10-26T03:47:06;4.82;;;1.20;;
50569;SDS011;36525;49.398;7.614;2022-10-26T03:49:33;6.95;;;1.80;;
50569;SDS011;36525;49.398;7.614;2022-10-26T03:52:01;7.53;;;1.40;;
50569;SDS011;36525;49.398;7.614;2022-10-26T03:54:28;6.15;;;1.33;;
50569;SDS011;36525;49.398;7.614;2022-10-26T03:56:54;5.88;;;1.45;;
50569;SDS011;36525;49.398;7.614;2022-10-26T03:59:21;7.13;;;1.30;;
50569;SDS011;36525;49.398;7.614;2022-10-26T04:01:48;10.55;;;1.50;;
50569;SDS011;36525;49.398;7.614;2022-10-26T04:04:20;5.22;;;1.52;;
50569;SDS011;36525;49.398;7.614;2022-10-26T04:06:47;5.53;;;1.42;;
50569;SDS011;36525;49.398;7.614;2022-10-26T04:09:14;4.90;;;1.40;;
50569;SDS011;36525;49.398;7.614;2022-10-26T04:11:41;9.00;;;1.67;;
50569;SDS011;36525;49.398;7.614;2022-10-26T04:14:08;5.15;;;1.38;;
50569;SDS011;36525;49.398;7.614;2022-10-26T04:16:34;4.00;;;1.20;;
50569;SDS011;36525;49.398;7.614;2022-10-26T04:19:01;3.45;;;1.27;;
50569;SDS011;36525;49.398;7.614;2022-10-26T04:21:28;5.72;;;1.25;;
50569;SDS011;36525;49.398;7.614;2022-10-26T04:23:57;4.55;;;1.17;;
50569;SDS011;36525;49.398;7.614;2022-10-26T04:26:24;7.72;;;1.83;;
50569;SDS011;36525;49.398;7.614;2022-10-26T04:28:51;5.13;;;1.15;;
50569;SDS011;36525;49.398;7.614;2022-10-26T04:31:18;3.72;;;1.10;;
50569;SDS011;36525;49.398;7.614;2022-10-26T04:33:45;6.90;;;1.30;;
50569;SDS011;36525;49.398;7.614;2022-10-26T04:36:12;8.57;;;1.30;;
50569;SDS011;36525;49.398;7.614;2022-10-26T04:38:39;6.38;;;1.13;;
50569;SDS011;36525;49.398;7.614;2022-10-26T04:41:06;7.35;;;1.20;;
50569;SDS011;36525;49.398;7.614;2022-10-26T04:43:32;6.20;;;1.38;;
50569;SDS011;36525;49.398;7.614;2022-10-26T04:45:59;7.32;;;1.60;;
50569;SDS011;36525;49.398;7.614;2022-10-26T04:48:26;5.82;;;1.20;;
50569;SDS011;36525;49.398;7.614;2022-10-26T04:50:53;10.63;;;1.30;;
50569;SDS011;36525;49.398;7.614;2022-10-26T04:53:24;8.02;;;1.25;;
50569;SDS011;36525;49.398;7.614;2022-10-26T04:55:58;5.32;;;1.40;;
50569;SDS011;36525;49.398;7.614;2022-10-26T04:58:26;5.45;;;1.60;;
50569;SDS011;36525;49.398;7.614;2022-10-26T05:00:53;8.52;;;2.25;;
50569;SDS011;36525;49.398;7.614;2022-10-26T05:03:21;3.60;;;1.40;;
50569;SDS011;36525;49.398;7.614;2022-10-26T05:05:48;6.50;;;1.50;;
50569;SDS011;36525;49.398;7.614;2022-10-26T05:08:15;7.05;;;1.17;;
50569;SDS011;36525;49.398;7.614;2022-10-26T05:10:42;3.85;;;1.05;;
50569;SDS011;36525;49.398;7.614;2022-10-26T05:13:13;5.45;;;1.00;;
50569;SDS011;36525;49.398;7.614;2022-10-26T05:15:40;4.25;;;1.17;;
50569;SDS011;36525;49.398;7.614;2022-10-26T05:18:07;6.22;;;1.10;;
50569;SDS011;36525;49.398;7.614;2022-10-26T05:20:35;6.63;;;1.10;;
50569;SDS011;36525;49.398;7.614;2022-10-26T05:23:03;5.55;;;0.95;;
50569;SDS011;36525;49.398;7.614;2022-10-26T05:25:35;6.15;;;1.20;;
50569;SDS011;36525;49.398;7.614;2022-10-26T05:28:04;5.10;;;1.02;;
50569;SDS011;36525;49.398;7.614;2022-10-26T05:30:34;3.70;;;1.30;;
50569;SDS011;36525;49.398;7.614;2022-10-26T05:33:01;2.90;;;1.13;;
50569;SDS011;36525;49.398;7.614;2022-10-26T05:35:28;7.55;;;1.30;;
50569;SDS011;36525;49.398;7.614;2022-10-26T05:37:57;7.03;;;1.15;;
50569;SDS011;36525;49.398;7.614;2022-10-26T05:40:24;7.50;;;1.10;;
50569;SDS011;36525;49.398;7.614;2022-10-26T05:42:51;6.10;;;1.60;;
50569;SDS011;36525;49.398;7.614;2022-10-26T05:45:18;10.85;;;1.42;;
50569;SDS011;36525;49.398;7.614;2022-10-26T05:47:45;7.55;;;1.15;;
50569;SDS011;36525;49.398;7.614;2022-10-26T05:50:13;9.02;;;1.98;;
50569;SDS011;36525;49.398;7.614;2022-10-26T05:52:43;5.22;;;2.40;;
50569;SDS011;36525;49.398;7.614;2022-10-26T05:55:13;6.07;;;1.43;;
50569;SDS011;36525;49.398;7.614;2022-10-26T05:57:43;12.02;;;1.83;;
50569;SDS011;36525;49.398;7.614;2022-10-26T06:02:48;4.25;;;1.48;;
50569;SDS011;36525;49.398;7.614;2022-10-26T06:05:51;9.07;;;1.90;;
50569;SDS011;36525;49.398;7.614;2022-10-26T06:08:21;6.28;;;1.42;;
50569;SDS011;36525;49.398;7.614;2022-10-26T06:10:51;5.63;;;1.58;;
50569;SDS011;36525;49.398;7.614;2022-10-26T06:13:19;11.25;;;2.30;;
50569;SDS011;36525;49.398;7.614;2022-10-26T06:25:20;6.20;;;1.42;;
50569;SDS011;36525;49.398;7.614;2022-10-26T06:28:13;7.63;;;1.95;;
50569;SDS011;36525;49.398;7.614;2022-10-26T06:30:52;5.72;;;1.67;;
50569;SDS011;36525;49.398;7.614;2022-10-26T06:33:20;6.80;;;2.10;;
50569;SDS011;36525;49.398;7.614;2022-10-26T06:38:48;4.38;;;1.38;;
50569;SDS011;36525;49.398;7.614;2022-10-26T06:41:20;8.38;;;2.10;;
50569;SDS011;36525;49.398;7.614;2022-10-26T06:43:48;11.68;;;2.03;;
50569;SDS011;36525;49.398;7.614;2022-10-26T06:49:17;6.45;;;1.95;;
50569;SDS011;36525;49.398;7.614;2022-10-26T06:57:18;8.30;;;1.95;;
50569;SDS011;36525;49.398;7.614;2022-10-26T06:59:52;10.45;;;2.33;;
50569;SDS011;36525;49.398;7.614;2022-10-26T07:02:25;9.18;;;2.35;;
50569;SDS011;36525;49.398;7.614;2022-10-26T07:04:53;8.80;;;2.00;;
50569;SDS011;36525;49.398;7.614;2022-10-26T07:07:24;8.88;;;2.50;;
50569;SDS011;36525;49.398;7.614;2022-10-26T07:09:57;7.13;;;2.20;;
50569;SDS011;36525;49.398;7.614;2022-10-26T07:12:24;5.88;;;2.08;;
50569;SDS011;36525;49.398;7.614;2022-10-26T07:14:57;7.00;;;2.10;;
50569;SDS011;36525;49.398;7.614;2022-10-26T07:17:26;7.80;;;1.85;;
50569;SDS011;36525;49.398;7.614;2022-10-26T07:19:53;9.60;;;2.03;;
50569;SDS011;36525;49.398;7.614;2022-10-26T07:22:21;7.25;;;1.95;;
50569;SDS011;36525;49.398;7.614;2022-10-26T07:24:48;6.05;;;2.03;;
50569;SDS011;36525;49.398;7.614;2022-10-26T07:27:16;9.80;;;2.45;;
50569;SDS011;36525;49.398;7.614;2022-10-26T07:29:46;9.75;;;2.28;;
50569;SDS011;36525;49.398;7.614;2022-10-26T07:32:13;8.90;;;2.15;;
50569;SDS011;36525;49.398;7.614;2022-10-26T07:34:40;7.32;;;2.40;;
50569;SDS011;36525;49.398;7.614;2022-10-26T07:37:07;8.45;;;1.63;;
50569;SDS011;36525;49.398;7.614;2022-10-26T07:39:34;8.20;;;1.95;;
50569;SDS011;36525;49.398;7.614;2022-10-26T07:42:00;7.13;;;2.20;;
50569;SDS011;36525;49.398;7.614;2022-10-26T07:44:27;9.35;;;2.22;;
50569;SDS011;36525;49.398;7.614;2022-10-26T07:46:54;10.20;;;3.05;;
50569;SDS011;36525;49.398;7.614;2022-10-26T07:49:22;8.15;;;2.40;;
50569;SDS011;36525;49.398;7.614;2022-10-26T07:51:53;6.40;;;2.20;;
50569;SDS011;36525;49.398;7.614;2022-10-26T07:54:20;11.77;;;2.25;;
50569;SDS011;36525;49.398;7.614;2022-10-26T07:56:49;9.30;;;2.08;;
50569;SDS011;36525;49.398;7.614;2022-10-26T07:59:16;6.93;;;1.50;;
50569;SDS011;36525;49.398;7.614;2022-10-26T08:01:43;10.48;;;2.20;;
50569;SDS011;36525;49.398;7.614;2022-10-26T08:04:11;7.03;;;2.13;;
50569;SDS011;36525;49.398;7.614;2022-10-26T08:06:38;4.15;;;1.73;;
50569;SDS011;36525;49.398;7.614;2022-10-26T08:09:05;6.82;;;1.88;;
50569;SDS011;36525;49.398;7.614;2022-10-26T08:11:32;13.57;;;4.60;;
50569;SDS011;36525;49.398;7.614;2022-10-26T08:14:02;9.73;;;2.10;;
50569;SDS011;36525;49.398;7.614;2022-10-26T08:16:29;8.52;;;2.72;;
50569;SDS011;36525;49.398;7.614;2022-10-26T08:18:56;9.88;;;2.50;;
50569;SDS011;36525;49.398;7.614;2022-10-26T08:21:23;10.32;;;2.10;;
50569;SDS011;36525;49.398;7.614;2022-10-26T08:24:04;5.95;;;2.22;;
50569;SDS011;36525;49.398;7.614;2022-10-26T08:26:32;8.90;;;2.42;;
50569;SDS011;36525;49.398;7.614;2022-10-26T08:28:59;12.50;;;2.42;;
50569;SDS011;36525;49.398;7.614;2022-10-26T08:31:26;6.63;;;2.45;;
50569;SDS011;36525;49.398;7.614;2022-10-26T08:33:53;8.30;;;2.65;;
50569;SDS011;36525;49.398;7.614;2022-10-26T08:36:23;12.02;;;4.15;;
50569;SDS011;36525;49.398;7.614;2022-10-26T08:38:53;6.38;;;2.22;;
50569;SDS011;36525;49.398;7.614;2022-10-26T08:42:03;9.30;;;2.05;;
50569;SDS011;36525;49.398;7.614;2022-10-26T08:44:22;7.13;;;2.10;;
50569;SDS011;36525;49.398;7.614;2022-10-26T08:46:52;5.43;;;1.58;;
50569;SDS011;36525;49.398;7.614;2022-10-26T08:49:38;7.50;;;2.15;;
50569;SDS011;36525;49.398;7.614;2022-10-26T08:52:27;7.28;;;1.67;;
50569;SDS011;36525;49.398;7.614;2022-10-26T08:55:14;7.75;;;2.28;;
50569;SDS011;36525;49.398;7.614;2022-10-26T08:57:46;9.57;;;2.08;;
50569;SDS011;36525;49.398;7.614;2022-10-26T09:00:22;11.68;;;1.80;;
50569;SDS011;36525;49.398;7.614;2022-10-26T09:02:51;9.90;;;1.90;;
50569;SDS011;36525;49.398;7.614;2022-10-26T09:05:24;6.15;;;2.00;;
50569;SDS011;36525;49.398;7.614;2022-10-26T09:08:16;7.55;;;2.13;;
50569;SDS011;36525;49.398;7.614;2022-10-26T09:11:04;7.93;;;1.60;;
50569;SDS011;36525;49.398;7.614;2022-10-26T09:24:54;7.22;;;1.67;;
50569;SDS011;36525;49.398;7.614;2022-10-26T09:27:43;10.85;;;1.75;;
50569;SDS011;36525;49.398;7.614;2022-10-26T09:30:14;5.68;;;1.58;;
50569;SDS011;36525;49.398;7.614;2022-10-26T09:32:58;8.32;;;1.65;;
50569;SDS011;36525;49.398;7.614;2022-10-26T09:35:40;8.25;;;1.95;;
50569;SDS011;36525;49.398;7.614;2022-10-26T09:38:31;5.72;;;1.50;;
50569;SDS011;36525;49.398;7.614;2022-10-26T09:41:05;8.53;;;2.03;;
50569;SDS011;36525;49.398;7.614;2022-10-26T09:44:20;4.63;;;1.50;;
50569;SDS011;36525;49.398;7.614;2022-10-26T09:49:57;11.13;;;2.30;;
50569;SDS011;36525;49.398;7.614;2022-10-26T09:52:41;10.32;;;2.05;;
50569;SDS011;36525;49.398;7.614;2022-10-26T09:55:11;8.73;;;2.30;;
50569;SDS011;36525;49.398;7.614;2022-10-26T09:57:43;7.30;;;1.85;;
50569;SDS011;36525;49.398;7.614;2022-10-26T10:00:12;10.10;;;1.88;;
50569;SDS011;36525;49.398;7.614;2022-10-26T10:02:49;5.82;;;1.60;;
50569;SDS011;36525;49.398;7.614;2022-10-26T10:08:17;6.28;;;1.60;;
50569;SDS011;36525;49.398;7.614;2022-10-26T10:13:40;7.97;;;2.03;;
50569;SDS011;36525;49.398;7.614;2022-10-26T10:16:10;7.03;;;1.67;;
50569;SDS011;36525;49.398;7.614;2022-10-26T10:18:47;9.30;;;1.63;;
50569;SDS011;36525;49.398;7.614;2022-10-26T10:21:21;9.75;;;1.88;;
50569;SDS011;36525;49.398;7.614;2022-10-26T10:24:20;9.23;;;2.13;;
50569;SDS011;36525;49.398;7.614;2022-10-26T10:29:50;8.05;;;2.13;;
50569;SDS011;36525;49.398;7.614;2022-10-26T10:32:28;8.27;;;1.92;;
50569;SDS011;36525;49.398;7.614;2022-10-26T10:35:04;5.88;;;2.08;;
50569;SDS011;36525;49.398;7.614;2022-10-26T10:37:55;6.13;;;1.42;;
50569;SDS011;36525;49.398;7.614;2022-10-26T10:40:23;6.80;;;1.83;;
50569;SDS011;36525;49.398;7.614;2022-10-26T10:43:10;6.65;;;1.23;;
50569;SDS011;36525;49.398;7.614;2022-10-26T10:45:39;7.43;;;1.58;;
50569;SDS011;36525;49.398;7.614;2022-10-26T10:48:25;5.55;;;1.40;;
50569;SDS011;36525;49.398;7.614;2022-10-26T10:56:21;8.98;;;1.42;;
50569;SDS011;36525;49.398;7.614;2022-10-26T11:05:00;10.23;;;1.58;;
50569;SDS011;36525;49.398;7.614;2022-10-26T11:08:01;5.25;;;1.50;;
50569;SDS011;36525;49.398;7.614;2022-10-26T11:10:58;5.35;;;1.70;;
50569;SDS011;36525;49.398;7.614;2022-10-26T11:13:39;7.57;;;1.75;;
50569;SDS011;36525;49.398;7.614;2022-10-26T11:19:56;11.23;;;1.92;;
50569;SDS011;36525;49.398;7.614;2022-10-26T11:22:34;8.63;;;1.80;;
50569;SDS011;36525;49.398;7.614;2022-10-26T11:25:36;7.72;;;1.77;;
50569;SDS011;36525;49.398;7.614;2022-10-26T11:31:22;8.15;;;1.73;;
50569;SDS011;36525;49.398;7.614;2022-10-26T11:36:49;5.00;;;1.73;;
50569;SDS011;36525;49.398;7.614;2022-10-26T11:42:19;6.07;;;2.40;;
50569;SDS011;36525;49.398;7.614;2022-10-26T11:45:08;10.82;;;1.80;;
50569;SDS011;36525;49.398;7.614;2022-10-26T11:47:50;9.75;;;2.35;;
50569;SDS011;36525;49.398;7.614;2022-10-26T11:50:26;5.82;;;1.67;;
50569;SDS011;36525;49.398;7.614;2022-10-26T11:53:00;8.65;;;2.30;;
50569;SDS011;36525;49.398;7.614;2022-10-26T11:55:48;4.80;;;1.35;;
50569;SDS011;36525;49.398;7.614;2022-10-26T11:58:23;5.68;;;1.75;;
50569;SDS011;36525;49.398;7.614;2022-10-26T12:01:02;5.25;;;1.35;;
50569;SDS011;36525;49.398;7.614;2022-10-26T12:03:36;4.55;;;1.30;;
50569;SDS011;36525;49.398;7.614;2022-10-26T12:06:11;8.02;;;1.50;;
50569;SDS011;36525;49.398;7.614;2022-10-26T12:08:41;6.80;;;2.15;;
50569;SDS011;36525;49.398;7.614;2022-10-26T12:13:58;10.15;;;1.55;;
50569;SDS011;36525;49.398;7.614;2022-10-26T12:19:34;7.55;;;1.92;;
50569;SDS011;36525;49.398;7.614;2022-10-26T12:22:27;9.48;;;1.58;;
50569;SDS011;36525;49.398;7.614;2022-10-26T12:37:57;9.15;;;2.13;;
50569;SDS011;36525;49.398;7.614;2022-10-26T12:45:39;4.68;;;1.20;;
50569;SDS011;36525;49.398;7.614;2022-10-26T12:48:42;7.00;;;1.25;;
50569;SDS011;36525;49.398;7.614;2022-10-26T12:57:15;7.22;;;1.23;;
50569;SDS011;36525;49.398;7.614;2022-10-26T13:00:00;6.63;;;1.35;;
50569;SDS011;36525;49.398;7.614;2022-10-26T13:05:42;7.28;;;1.20;;
50569;SDS011;36525;49.398;7.614;2022-10-26T13:08:23;4.38;;;0.93;;
50569;SDS011;36525;49.398;7.614;2022-10-26T13:11:01;8.30;;;1.50;;
50569;SDS011;36525;49.398;7.614;2022-10-26T13:13:42;7.07;;;1.20;;
50569;SDS011;36525;49.398;7.614;2022-10-26T13:16:11;6.90;;;1.02;;
50569;SDS011;36525;49.398;7.614;2022-10-26T13:18:42;4.25;;;1.10;;
50569;SDS011;36525;49.398;7.614;2022-10-26T13:21:15;8.20;;;1.10;;
50569;SDS011;36525;49.398;7.614;2022-10-26T13:26:32;6.30;;;1.35;;
50569;SDS011;36525;49.398;7.614;2022-10-26T13:29:31;5.30;;;1.10;;
50569;SDS011;36525;49.398;7.614;2022-10-26T13:31:59;4.13;;;0.90;;
50569;SDS011;36525;49.398;7.614;2022-10-26T13:34:30;4.82;;;1.48;;
50569;SDS011;36525;49.398;7.614;2022-10-26T13:37:00;4.47;;;0.93;;
50569;SDS011;36525;49.398;7.614;2022-10-26T13:39:46;3.90;;;0.90;;
50569;SDS011;36525;49.398;7.614;2022-10-26T13:42:16;4.82;;;1.00;;
50569;SDS011;36525;49.398;7.614;2022-10-26T13:45:06;4.40;;;1.02;;
50569;SDS011;36525;49.398;7.614;2022-10-26T13:47:47;9.70;;;1.00;;
50569;SDS011;36525;49.398;7.614;2022-10-26T13:50:27;5.97;;;0.93;;
50569;SDS011;36525;49.398;7.614;2022-10-26T13:56:04;5.88;;;1.30;;
50569;SDS011;36525;49.398;7.614;2022-10-26T13:59:21;6.32;;;1.10;;
50569;SDS011;36525;49.398;7.614;2022-10-26T14:01:40;2.95;;;0.85;;
50569;SDS011;36525;49.398;7.614;2022-10-26T14:04:24;3.65;;;0.80;;
50569;SDS011;36525;49.398;7.614;2022-10-26T14:06:52;6.10;;;1.00;;
50569;SDS011;36525;49.398;7.614;2022-10-26T14:09:20;6.55;;;1.33;;
50569;SDS011;36525;49.398;7.614;2022-10-26T14:11:48;4.55;;;1.23;;
50569;SDS011;36525;49.398;7.614;2022-10-26T14:16:57;4.55;;;1.30;;
50569;SDS011;36525;49.398;7.614;2022-10-26T14:19:29;5.57;;;0.95;;
50569;SDS011;36525;49.398;7.614;2022-10-26T14:21:58;4.10;;;0.98;;
50569;SDS011;36525;49.398;7.614;2022-10-26T14:24:30;3.97;;;0.80;;
50569;SDS011;36525;49.398;7.614;2022-10-26T14:27:16;5.32;;;0.95;;
50569;SDS011;36525;49.398;7.614;2022-10-26T14:29:46;7.20;;;1.00;;
50569;SDS011;36525;49.398;7.614;2022-10-26T14:32:35;3.75;;;0.80;;
50569;SDS011;36525;49.398;7.614;2022-10-26T14:35:02;7.47;;;0.90;;
50569;SDS011;36525;49.398;7.614;2022-10-26T14:37:37;3.47;;;1.20;;
50569;SDS011;36525;49.398;7.614;2022-10-26T14:40:21;7.15;;;1.65;;
50569;SDS011;36525;49.398;7.614;2022-10-26T14:42:56;8.38;;;1.27;;
50569;SDS011;36525;49.398;7.614;2022-10-26T14:51:00;5.65;;;0.90;;
50569;SDS011;36525;49.398;7.614;2022-10-26T14:53:40;6.47;;;0.90;;
50569;SDS011;36525;49.398;7.614;2022-10-26T14:56:22;4.65;;;1.08;;
50569;SDS011;36525;49.398;7.614;2022-10-26T14:58:56;6.70;;;1.00;;
50569;SDS011;36525;49.398;7.614;2022-10-26T15:01:25;6.32;;;1.20;;
50569;SDS011;36525;49.398;7.614;2022-10-26T15:04:01;7.00;;;0.90;;
50569;SDS011;36525;49.398;7.614;2022-10-26T15:09:54;4.28;;;0.95;;
50569;SDS011;36525;49.398;7.614;2022-10-26T15:11:58;5.88;;;1.30;;
50569;SDS011;36525;49.398;7.614;2022-10-26T15:14:27;8.18;;;0.95;;
50569;SDS011;36525;49.398;7.614;2022-10-26T15:16:55;5.50;;;1.10;;
50569;SDS011;36525;49.398;7.614;2022-10-26T15:19:24;3.72;;;0.90;;
50569;SDS011;36525;49.398;7.614;2022-10-26T15:21:52;6.95;;;1.00;;
50569;SDS011;36525;49.398;7.614;2022-10-26T15:29:43;3.65;;;1.00;;
50569;SDS011;36525;49.398;7.614;2022-10-26T15:32:26;6.78;;;1.00;;
50569;SDS011;36525;49.398;7.614;2022-10-26T15:37:44;3.60;;;0.93;;
50569;SDS011;36525;49.398;7.614;2022-10-26T15:40:12;5.97;;;1.08;;
50569;SDS011;36525;49.398;7.614;2022-10-26T15:42:40;7.13;;;0.90;;
50569;SDS011;36525;49.398;7.614;2022-10-26T15:45:27;5.40;;;1.23;;
50569;SDS011;36525;49.398;7.614;2022-10-26T15:48:14;4.95;;;0.88;;
50569;SDS011;36525;49.398;7.614;2022-10-26T15:50:45;4.13;;;1.05;;
50569;SDS011;36525;49.398;7.614;2022-10-26T15:53:17;3.90;;;1.10;;
50569;SDS011;36525;49.398;7.614;2022-10-26T15:55:52;7.78;;;1.55;;
50569;SDS011;36525;49.398;7.614;2022-10-26T15:58:22;3.53;;;1.20;;
50569;SDS011;36525;49.398;7.614;2022-10-26T16:00:49;7.57;;;1.45;;
50569;SDS011;36525;49.398;7.614;2022-10-26T16:03:20;6.18;;;1.17;;
50569;SDS011;36525;49.398;7.614;2022-10-26T16:05:50;4.93;;;1.27;;
50569;SDS011;36525;49.398;7.614;2022-10-26T16:08:23;3.83;;;0.90;;
50569;SDS011;36525;49.398;7.614;2022-10-26T16:10:53;6.28;;;1.20;;
50569;SDS011;36525;49.398;7.614;2022-10-26T16:13:20;5.88;;;1.30;;
50569;SDS011;36525;49.398;7.614;2022-10-26T16:15:47;4.75;;;1.30;;
50569;SDS011;36525;49.398;7.614;2022-10-26T16:18:14;4.57;;;1.40;;
50569;SDS011;36525;49.398;7.614;2022-10-26T16:20:43;7.05;;;2.90;;
50569;SDS011;36525;49.398;7.614;2022-10-26T16:23:11;7.25;;;2.47;;
50569;SDS011;36525;49.398;7.614;2022-10-26T16:25:42;8.95;;;2.63;;
50569;SDS011;36525;49.398;7.614;2022-10-26T16:28:12;7.53;;;2.25;;
50569;SDS011;36525;49.398;7.614;2022-10-26T16:30:41;10.02;;;3.55;;
50569;SDS011;36525;49.398;7.614;2022-10-26T16:33:08;9.20;;;2.60;;
50569;SDS011;36525;49.398;7.614;2022-10-26T16:35:35;6.18;;;2.20;;
50569;SDS011;36525;49.398;7.614;2022-10-26T16:38:02;6.03;;;2.05;;
50569;SDS011;36525;49.398;7.614;2022-10-26T16:40:29;9.27;;;2.38;;
50569;SDS011;36525;49.398;7.614;2022-10-26T16:42:56;7.68;;;1.98;;
50569;SDS011;36525;49.398;7.614;2022-10-26T16:45:23;10.50;;;4.00;;
50569;SDS011;36525;49.398;7.614;2022-10-26T16:47:50;9.48;;;4.50;;
50569;SDS011;36525;49.398;7.614;2022-10-26T16:50:17;13.35;;;6.30;;
50569;SDS011;36525;49.398;7.614;2022-10-26T16:52:47;10.18;;;5.30;;
50569;SDS011;36525;49.398;7.614;2022-10-26T16:55:14;16.80;;;6.75;;
50569;SDS011;36525;49.398;7.614;2022-10-26T16:57:42;15.32;;;7.50;;
50569;SDS011;36525;49.398;7.614;2022-10-26T17:00:09;23.40;;;11.63;;
50569;SDS011;36525;49.398;7.614;2022-10-26T17:02:36;16.85;;;9.20;;
50569;SDS011;36525;49.398;7.614;2022-10-26T17:05:03;16.92;;;8.48;;
50569;SDS011;36525;49.398;7.614;2022-10-26T17:07:33;18.08;;;9.40;;
50569;SDS011;36525;49.398;7.614;2022-10-26T17:10:00;18.50;;;10.60;;
50569;SDS011;36525;49.398;7.614;2022-10-26T17:12:27;17.77;;;10.57;;
50569;SDS011;36525;49.398;7.614;2022-10-26T17:14:54;25.42;;;13.57;;
50569;SDS011;36525;49.398;7.614;2022-10-26T17:17:23;22.13;;;11.48;;
50569;SDS011;36525;49.398;7.614;2022-10-26T17:19:50;17.38;;;10.15;;
50569;SDS011;36525;49.398;7.614;2022-10-26T17:22:17;21.60;;;13.90;;
50569;SDS011;36525;49.398;7.614;2022-10-26T17:24:44;17.92;;;13.57;;
50569;SDS011;36525;49.398;7.614;2022-10-26T17:27:11;21.45;;;14.30;;
50569;SDS011;36525;49.398;7.614;2022-10-26T17:29:38;19.10;;;11.07;;
50569;SDS011;36525;49.398;7.614;2022-10-26T17:32:05;13.23;;;7.97;;
50569;SDS011;36525;49.398;7.614;2022-10-26T17:34:31;11.82;;;7.20;;
50569;SDS011;36525;49.398;7.614;2022-10-26T17:36:58;12.45;;;7.82;;
50569;SDS011;36525;49.398;7.614;2022-10-26T17:39:25;12.95;;;7.88;;
50569;SDS011;36525;49.398;7.614;2022-10-26T17:41:52;11.10;;;6.47;;
50569;SDS011;36525;49.398;7.614;2022-10-26T17:44:19;11.60;;;6.82;;
50569;SDS011;36525;49.398;7.614;2022-10-26T17:46:46;12.38;;;6.95;;
50569;SDS011;36525;49.398;7.614;2022-10-26T17:49:13;12.55;;;7.00;;
50569;SDS011;36525;49.398;7.614;2022-10-26T17:51:40;16.13;;;8.95;;
50569;SDS011;36525;49.398;7.614;2022-10-26T17:54:06;13.15;;;7.65;;
50569;SDS011;36525;49.398;7.614;2022-10-26T17:56:33;15.18;;;7.55;;
50569;SDS011;36525;49.398;7.614;2022-10-26T17:59:02;15.18;;;7.80;;